sensor_id;sensor_type;location;lat;lon;timestamp;pressure;altitude;pressure_sealevel;temperature;humidity
57412;BME280;43247;52.828;-8.980;2023-03-04T00:00:42;103372.87;;;7.58;77.53
57412;BME280;43247;52.828;-8.980;2023-03-04T00:01:43;103372.95;;;7.60;77.50
57412;BME280;43247;52.828;-8.980;2023-03-04T00:02:43;103371.45;;;7.63;77.42
57412;BME280;43247;52.828;-8.980;2023-03-04T00:03:43;103374.58;;;7.63;77.33
57412;BME280;43247;52.828;-8.980;2023-03-04T00:04:44;103372.92;;;7.61;77.31
57412;BME280;43247;52.828;-8.980;2023-03-04T00:05:44;103371.53;;;7.60;77.33
57412;BME280;43247;52.828;-8.980;2023-03-04T00:06:45;103372.42;;;7.58;77.32
57412;BME280;43247;52.828;-8.980;2023-03-04T00:07:45;103372.76;;;7.57;77.34
57412;BME280;43247;52.828;-8.980;2023-03-04T00:08:45;103374.14;;;7.57;77.48
57412;BME280;43247;52.828;-8.980;2023-03-04T00:09:45;103374.99;;;7.56;77.50
57412;BME280;43247;52.828;-8.980;2023-03-04T00:10:46;103375.21;;;7.56;77.52
57412;BME280;43247;52.828;-8.980;2023-03-04T00:11:46;103376.74;;;7.56;77.52
57412;BME280;43247;52.828;-8.980;2023-03-04T00:12:46;103376.10;;;7.56;77.37
57412;BME280;43247;52.828;-8.980;2023-03-04T00:13:46;103378.15;;;7.56;77.48
57412;BME280;43247;52.828;-8.980;2023-03-04T00:14:46;103379.50;;;7.55;77.50
57412;BME280;43247;52.828;-8.980;2023-03-04T00:15:47;103377.46;;;7.54;77.42
57412;BME280;43247;52.828;-8.980;2023-03-04T00:16:47;103375.46;;;7.54;77.46
57412;BME280;43247;52.828;-8.980;2023-03-04T00:17:47;103375.51;;;7.53;77.44
57412;BME280;43247;52.828;-8.980;2023-03-04T00:18:47;103375.58;;;7.52;77.43
57412;BME280;43247;52.828;-8.980;2023-03-04T00:19:47;103376.28;;;7.52;77.38
57412;BME280;43247;52.828;-8.980;2023-03-04T00:20:48;103375.93;;;7.51;77.37
57412;BME280;43247;52.828;-8.980;2023-03-04T00:21:48;103378.38;;;7.50;77.30
57412;BME280;43247;52.828;-8.980;2023-03-04T00:22:48;103378.24;;;7.49;77.43
57412;BME280;43247;52.828;-8.980;2023-03-04T00:23:49;103380.74;;;7.49;77.36
57412;BME280;43247;52.828;-8.980;2023-03-04T00:24:48;103380.53;;;7.50;77.34
57412;BME280;43247;52.828;-8.980;2023-03-04T00:25:49;103377.70;;;7.48;77.37
57412;BME280;43247;52.828;-8.980;2023-03-04T00:26:49;103376.77;;;7.48;77.40
57412;BME280;43247;52.828;-8.980;2023-03-04T00:27:49;103376.31;;;7.47;77.35
57412;BME280;43247;52.828;-8.980;2023-03-04T00:28:49;103377.34;;;7.46;77.36
57412;BME280;43247;52.828;-8.980;2023-03-04T00:29:49;103374.03;;;7.46;77.30
57412;BME280;43247;52.828;-8.980;2023-03-04T00:30:50;103372.93;;;7.45;77.36
57412;BME280;43247;52.828;-8.980;2023-03-04T00:31:50;103375.14;;;7.45;77.34
57412;BME280;43247;52.828;-8.980;2023-03-04T00:32:50;103376.25;;;7.44;77.30
57412;BME280;43247;52.828;-8.980;2023-03-04T00:33:50;103377.81;;;7.43;77.30
57412;BME280;43247;52.828;-8.980;2023-03-04T00:34:51;103378.79;;;7.43;77.38
57412;BME280;43247;52.828;-8.980;2023-03-04T00:35:51;103379.33;;;7.43;77.34
57412;BME280;43247;52.828;-8.980;2023-03-04T00:36:51;103379.81;;;7.41;77.38
57412;BME280;43247;52.828;-8.980;2023-03-04T00:37:52;103378.95;;;7.41;77.45
57412;BME280;43247;52.828;-8.980;2023-03-04T00:38:52;103380.30;;;7.40;77.46
57412;BME280;43247;52.828;-8.980;2023-03-04T00:39:52;103383.17;;;7.40;77.45
57412;BME280;43247;52.828;-8.980;2023-03-04T00:40:52;103381.63;;;7.39;77.44
57412;BME280;43247;52.828;-8.980;2023-03-04T00:41:53;103380.45;;;7.38;77.49
57412;BME280;43247;52.828;-8.980;2023-03-04T00:42:53;103382.10;;;7.37;77.43
57412;BME280;43247;52.828;-8.980;2023-03-04T00:43:53;103381.51;;;7.37;77.43
57412;BME280;43247;52.828;-8.980;2023-03-04T00:44:54;103380.36;;;7.36;77.42
57412;BME280;43247;52.828;-8.980;2023-03-04T00:45:54;103381.81;;;7.36;77.38
57412;BME280;43247;52.828;-8.980;2023-03-04T00:46:54;103380.07;;;7.36;77.39
57412;BME280;43247;52.828;-8.980;2023-03-04T00:47:54;103385.91;;;7.36;77.42
57412;BME280;43247;52.828;-8.980;2023-03-04T00:48:54;103383.41;;;7.36;77.45
57412;BME280;43247;52.828;-8.980;2023-03-04T00:49:55;103382.83;;;7.34;77.44
57412;BME280;43247;52.828;-8.980;2023-03-04T00:50:55;103386.68;;;7.34;77.38
57412;BME280;43247;52.828;-8.980;2023-03-04T00:51:55;103387.97;;;7.34;77.38
57412;BME280;43247;52.828;-8.980;2023-03-04T00:52:55;103387.72;;;7.34;77.45
57412;BME280;43247;52.828;-8.980;2023-03-04T00:53:55;103387.67;;;7.33;77.39
57412;BME280;43247;52.828;-8.980;2023-03-04T00:54:56;103387.68;;;7.33;77.42
57412;BME280;43247;52.828;-8.980;2023-03-04T00:55:56;103390.76;;;7.33;77.36
57412;BME280;43247;52.828;-8.980;2023-03-04T00:56:57;103391.57;;;7.32;77.34
57412;BME280;43247;52.828;-8.980;2023-03-04T00:57:57;103389.51;;;7.32;77.34
57412;BME280;43247;52.828;-8.980;2023-03-04T00:58:57;103391.82;;;7.32;77.37
57412;BME280;43247;52.828;-8.980;2023-03-04T00:59:57;103389.47;;;7.31;77.41
57412;BME280;43247;52.828;-8.980;2023-03-04T01:00:57;103391.55;;;7.31;77.39
57412;BME280;43247;52.828;-8.980;2023-03-04T01:01:58;103391.38;;;7.30;77.39
57412;BME280;43247;52.828;-8.980;2023-03-04T01:02:58;103389.01;;;7.30;77.35
57412;BME280;43247;52.828;-8.980;2023-03-04T01:03:58;103389.79;;;7.29;77.37
57412;BME280;43247;52.828;-8.980;2023-03-04T01:04:58;103391.94;;;7.28;77.37
57412;BME280;43247;52.828;-8.980;2023-03-04T01:05:59;103390.79;;;7.28;77.39
57412;BME280;43247;52.828;-8.980;2023-03-04T01:06:59;103391.05;;;7.28;77.44
57412;BME280;43247;52.828;-8.980;2023-03-04T01:07:59;103393.30;;;7.28;77.44
57412;BME280;43247;52.828;-8.980;2023-03-04T01:08:59;103391.32;;;7.28;77.45
57412;BME280;43247;52.828;-8.980;2023-03-04T01:09:59;103394.52;;;7.27;77.44
57412;BME280;43247;52.828;-8.980;2023-03-04T01:11:00;103392.53;;;7.27;77.42
57412;BME280;43247;52.828;-8.980;2023-03-04T01:12:00;103396.19;;;7.26;77.39
57412;BME280;43247;52.828;-8.980;2023-03-04T01:13:00;103393.36;;;7.26;77.45
57412;BME280;43247;52.828;-8.980;2023-03-04T01:14:00;103392.70;;;7.25;77.39
57412;BME280;43247;52.828;-8.980;2023-03-04T01:15:00;103392.09;;;7.25;77.48
57412;BME280;43247;52.828;-8.980;2023-03-04T01:16:01;103391.75;;;7.25;77.44
57412;BME280;43247;52.828;-8.980;2023-03-04T01:17:01;103390.90;;;7.24;77.51
57412;BME280;43247;52.828;-8.980;2023-03-04T01:18:01;103392.94;;;7.24;77.51
57412;BME280;43247;52.828;-8.980;2023-03-04T01:19:01;103391.65;;;7.24;77.54
57412;BME280;43247;52.828;-8.980;2023-03-04T01:20:05;103392.31;;;7.24;77.51
57412;BME280;43247;52.828;-8.980;2023-03-04T01:21:03;103392.40;;;7.24;77.54
57412;BME280;43247;52.828;-8.980;2023-03-04T01:22:03;103392.63;;;7.24;77.58
57412;BME280;43247;52.828;-8.980;2023-03-04T01:23:03;103390.74;;;7.25;77.62
57412;BME280;43247;52.828;-8.980;2023-03-04T01:24:04;103390.83;;;7.24;77.62
57412;BME280;43247;52.828;-8.980;2023-03-04T01:25:05;103389.60;;;7.23;77.58
57412;BME280;43247;52.828;-8.980;2023-03-04T01:26:04;103391.55;;;7.23;77.55
57412;BME280;43247;52.828;-8.980;2023-03-04T01:27:04;103387.95;;;7.22;77.54
57412;BME280;43247;52.828;-8.980;2023-03-04T01:28:04;103392.38;;;7.22;77.54
57412;BME280;43247;52.828;-8.980;2023-03-04T01:29:05;103395.18;;;7.22;77.54
57412;BME280;43247;52.828;-8.980;2023-03-04T01:30:06;103393.88;;;7.21;77.61
57412;BME280;43247;52.828;-8.980;2023-03-04T01:31:05;103396.79;;;7.21;77.62
57412;BME280;43247;52.828;-8.980;2023-03-04T01:32:05;103396.68;;;7.21;77.58
57412;BME280;43247;52.828;-8.980;2023-03-04T01:33:06;103396.83;;;7.21;77.58
57412;BME280;43247;52.828;-8.980;2023-03-04T01:34:06;103398.54;;;7.20;77.56
57412;BME280;43247;52.828;-8.980;2023-03-04T01:35:06;103398.41;;;7.21;77.59
57412;BME280;43247;52.828;-8.980;2023-03-04T01:36:06;103399.48;;;7.20;77.65
57412;BME280;43247;52.828;-8.980;2023-03-04T01:37:06;103399.31;;;7.20;77.60
57412;BME280;43247;52.828;-8.980;2023-03-04T01:38:07;103398.89;;;7.19;77.61
57412;BME280;43247;52.828;-8.980;2023-03-04T01:39:07;103399.98;;;7.19;77.58
57412;BME280;43247;52.828;-8.980;2023-03-04T01:40:09;103398.70;;;7.19;77.54
57412;BME280;43247;52.828;-8.980;2023-03-04T01:41:07;103399.30;;;7.19;77.51
57412;BME280;43247;52.828;-8.980;2023-03-04T01:42:13;103398.76;;;7.19;77.54
57412;BME280;43247;52.828;-8.980;2023-03-04T01:43:11;103400.23;;;7.19;77.57
57412;BME280;43247;52.828;-8.980;2023-03-04T01:44:09;103399.39;;;7.19;77.54
57412;BME280;43247;52.828;-8.980;2023-03-04T01:45:12;103398.51;;;7.19;77.45
57412;BME280;43247;52.828;-8.980;2023-03-04T01:46:10;103395.43;;;7.18;77.39
57412;BME280;43247;52.828;-8.980;2023-03-04T01:47:09;103395.50;;;7.18;77.37
57412;BME280;43247;52.828;-8.980;2023-03-04T01:48:12;103392.39;;;7.18;77.39
57412;BME280;43247;52.828;-8.980;2023-03-04T01:49:13;103393.22;;;7.18;77.38
57412;BME280;43247;52.828;-8.980;2023-03-04T01:50:17;103391.78;;;7.17;77.32
57412;BME280;43247;52.828;-8.980;2023-03-04T01:51:12;103391.63;;;7.17;77.32
57412;BME280;43247;52.828;-8.980;2023-03-04T01:52:11;103393.36;;;7.17;77.37
57412;BME280;43247;52.828;-8.980;2023-03-04T01:53:16;103393.90;;;7.16;77.36
57412;BME280;43247;52.828;-8.980;2023-03-04T01:54:10;103394.33;;;7.16;77.35
57412;BME280;43247;52.828;-8.980;2023-03-04T01:55:15;103393.12;;;7.16;77.35
57412;BME280;43247;52.828;-8.980;2023-03-04T01:56:14;103393.66;;;7.16;77.37
57412;BME280;43247;52.828;-8.980;2023-03-04T01:57:16;103393.50;;;7.16;77.31
57412;BME280;43247;52.828;-8.980;2023-03-04T01:58:12;103392.77;;;7.16;77.37
57412;BME280;43247;52.828;-8.980;2023-03-04T01:59:14;103392.03;;;7.15;77.38
57412;BME280;43247;52.828;-8.980;2023-03-04T02:00:18;103395.14;;;7.16;77.35
57412;BME280;43247;52.828;-8.980;2023-03-04T02:01:13;103395.36;;;7.15;77.34
57412;BME280;43247;52.828;-8.980;2023-03-04T02:02:13;103396.33;;;7.15;77.31
57412;BME280;43247;52.828;-8.980;2023-03-04T02:03:15;103394.23;;;7.15;77.33
57412;BME280;43247;52.828;-8.980;2023-03-04T02:04:14;103396.07;;;7.14;77.26
57412;BME280;43247;52.828;-8.980;2023-03-04T02:05:13;103397.57;;;7.14;77.29
57412;BME280;43247;52.828;-8.980;2023-03-04T02:06:13;103399.76;;;7.14;77.27
57412;BME280;43247;52.828;-8.980;2023-03-04T02:07:13;103397.18;;;7.14;77.37
57412;BME280;43247;52.828;-8.980;2023-03-04T02:08:14;103394.91;;;7.13;77.36
57412;BME280;43247;52.828;-8.980;2023-03-04T02:09:14;103392.03;;;7.13;77.35
57412;BME280;43247;52.828;-8.980;2023-03-04T02:10:14;103392.25;;;7.13;77.28
57412;BME280;43247;52.828;-8.980;2023-03-04T02:11:14;103390.11;;;7.13;77.32
57412;BME280;43247;52.828;-8.980;2023-03-04T02:12:14;103389.87;;;7.12;77.34
57412;BME280;43247;52.828;-8.980;2023-03-04T02:13:15;103389.74;;;7.12;77.30
57412;BME280;43247;52.828;-8.980;2023-03-04T02:14:15;103387.97;;;7.11;77.11
57412;BME280;43247;52.828;-8.980;2023-03-04T02:15:15;103387.32;;;7.11;76.78
57412;BME280;43247;52.828;-8.980;2023-03-04T02:16:15;103385.78;;;7.11;76.60
57412;BME280;43247;52.828;-8.980;2023-03-04T02:17:15;103386.73;;;7.11;76.39
57412;BME280;43247;52.828;-8.980;2023-03-04T02:18:18;103385.84;;;7.10;76.24
57412;BME280;43247;52.828;-8.980;2023-03-04T02:19:27;103385.11;;;7.11;76.19
57412;BME280;43247;52.828;-8.980;2023-03-04T02:20:24;103383.58;;;7.10;76.00
57412;BME280;43247;52.828;-8.980;2023-03-04T02:21:19;103381.10;;;7.10;75.98
57412;BME280;43247;52.828;-8.980;2023-03-04T02:22:16;103379.73;;;7.10;75.86
57412;BME280;43247;52.828;-8.980;2023-03-04T02:23:20;103381.26;;;7.10;75.85
57412;BME280;43247;52.828;-8.980;2023-03-04T02:24:22;103379.28;;;7.10;75.75
57412;BME280;43247;52.828;-8.980;2023-03-04T02:25:21;103380.15;;;7.10;75.52
57412;BME280;43247;52.828;-8.980;2023-03-04T02:26:18;103381.09;;;7.10;75.54
57412;BME280;43247;52.828;-8.980;2023-03-04T02:27:17;103379.97;;;7.09;75.56
57412;BME280;43247;52.828;-8.980;2023-03-04T02:28:18;103379.31;;;7.08;75.49
57412;BME280;43247;52.828;-8.980;2023-03-04T02:29:18;103380.43;;;7.08;75.30
57412;BME280;43247;52.828;-8.980;2023-03-04T02:30:20;103380.09;;;7.07;75.30
57412;BME280;43247;52.828;-8.980;2023-03-04T02:31:23;103379.37;;;7.07;75.19
57412;BME280;43247;52.828;-8.980;2023-03-04T02:32:18;103377.65;;;7.06;75.20
57412;BME280;43247;52.828;-8.980;2023-03-04T02:33:19;103375.17;;;7.06;75.16
57412;BME280;43247;52.828;-8.980;2023-03-04T02:34:20;103375.28;;;7.05;75.11
57412;BME280;43247;52.828;-8.980;2023-03-04T02:35:20;103376.27;;;7.05;75.16
57412;BME280;43247;52.828;-8.980;2023-03-04T02:36:19;103373.71;;;7.04;75.15
57412;BME280;43247;52.828;-8.980;2023-03-04T02:37:19;103375.26;;;7.04;75.17
57412;BME280;43247;52.828;-8.980;2023-03-04T02:38:19;103374.25;;;7.04;75.16
57412;BME280;43247;52.828;-8.980;2023-03-04T02:39:27;103374.96;;;7.03;75.04
57412;BME280;43247;52.828;-8.980;2023-03-04T02:40:24;103374.19;;;7.02;75.08
57412;BME280;43247;52.828;-8.980;2023-03-04T02:41:23;103374.39;;;7.02;75.14
57412;BME280;43247;52.828;-8.980;2023-03-04T02:42:20;103374.51;;;7.01;75.35
57412;BME280;43247;52.828;-8.980;2023-03-04T02:43:21;103373.60;;;7.00;75.22
57412;BME280;43247;52.828;-8.980;2023-03-04T02:44:23;103372.17;;;6.98;75.41
57412;BME280;43247;52.828;-8.980;2023-03-04T02:45:29;103371.61;;;6.98;75.42
57412;BME280;43247;52.828;-8.980;2023-03-04T02:46:22;103370.19;;;6.97;75.32
57412;BME280;43247;52.828;-8.980;2023-03-04T02:47:21;103372.91;;;6.96;75.40
57412;BME280;43247;52.828;-8.980;2023-03-04T02:48:22;103369.64;;;6.94;75.06
57412;BME280;43247;52.828;-8.980;2023-03-04T02:49:23;103370.04;;;6.80;73.69
57412;BME280;43247;52.828;-8.980;2023-03-04T02:50:22;103369.30;;;6.66;74.11
57412;BME280;43247;52.828;-8.980;2023-03-04T02:51:22;103369.38;;;6.63;74.19
57412;BME280;43247;52.828;-8.980;2023-03-04T02:52:24;103366.48;;;6.63;74.12
57412;BME280;43247;52.828;-8.980;2023-03-04T02:53:23;103369.39;;;6.59;74.14
57412;BME280;43247;52.828;-8.980;2023-03-04T02:54:23;103368.76;;;6.59;74.19
57412;BME280;43247;52.828;-8.980;2023-03-04T02:55:23;103365.59;;;6.61;74.51
57412;BME280;43247;52.828;-8.980;2023-03-04T02:56:23;103363.92;;;6.64;74.49
57412;BME280;43247;52.828;-8.980;2023-03-04T02:57:23;103364.02;;;6.64;74.59
57412;BME280;43247;52.828;-8.980;2023-03-04T02:58:24;103362.07;;;6.68;74.73
57412;BME280;43247;52.828;-8.980;2023-03-04T02:59:24;103362.21;;;6.66;74.67
57412;BME280;43247;52.828;-8.980;2023-03-04T03:00:24;103358.90;;;6.67;74.53
57412;BME280;43247;52.828;-8.980;2023-03-04T03:01:27;103360.35;;;6.70;74.57
57412;BME280;43247;52.828;-8.980;2023-03-04T03:02:26;103358.19;;;6.71;74.40
57412;BME280;43247;52.828;-8.980;2023-03-04T03:03:25;103356.49;;;6.78;74.20
57412;BME280;43247;52.828;-8.980;2023-03-04T03:04:26;103356.46;;;6.73;74.13
57412;BME280;43247;52.828;-8.980;2023-03-04T03:05:28;103357.63;;;6.75;74.32
57412;BME280;43247;52.828;-8.980;2023-03-04T03:06:26;103356.76;;;6.78;74.02
57412;BME280;43247;52.828;-8.980;2023-03-04T03:07:26;103355.41;;;6.80;74.13
57412;BME280;43247;52.828;-8.980;2023-03-04T03:08:26;103354.45;;;6.78;74.13
57412;BME280;43247;52.828;-8.980;2023-03-04T03:09:26;103354.99;;;6.82;74.08
57412;BME280;43247;52.828;-8.980;2023-03-04T03:10:27;103353.58;;;6.87;74.01
57412;BME280;43247;52.828;-8.980;2023-03-04T03:11:27;103354.37;;;6.85;74.09
57412;BME280;43247;52.828;-8.980;2023-03-04T03:12:27;103355.13;;;6.88;74.08
57412;BME280;43247;52.828;-8.980;2023-03-04T03:13:27;103356.10;;;6.90;74.14
57412;BME280;43247;52.828;-8.980;2023-03-04T03:14:28;103353.95;;;6.90;73.94
57412;BME280;43247;52.828;-8.980;2023-03-04T03:15:28;103354.39;;;6.92;73.79
57412;BME280;43247;52.828;-8.980;2023-03-04T03:16:28;103354.47;;;6.91;73.92
57412;BME280;43247;52.828;-8.980;2023-03-04T03:17:28;103354.24;;;6.93;73.90
57412;BME280;43247;52.828;-8.980;2023-03-04T03:18:28;103354.47;;;6.94;74.30
57412;BME280;43247;52.828;-8.980;2023-03-04T03:19:29;103356.03;;;6.94;74.02
57412;BME280;43247;52.828;-8.980;2023-03-04T03:20:29;103356.66;;;6.94;74.22
57412;BME280;43247;52.828;-8.980;2023-03-04T03:21:29;103355.85;;;6.95;74.05
57412;BME280;43247;52.828;-8.980;2023-03-04T03:22:29;103355.23;;;6.96;74.35
57412;BME280;43247;52.828;-8.980;2023-03-04T03:23:29;103355.00;;;6.96;74.18
57412;BME280;43247;52.828;-8.980;2023-03-04T03:24:29;103354.87;;;6.97;74.11
57412;BME280;43247;52.828;-8.980;2023-03-04T03:25:30;103353.10;;;6.97;74.55
57412;BME280;43247;52.828;-8.980;2023-03-04T03:26:30;103355.10;;;6.97;74.52
57412;BME280;43247;52.828;-8.980;2023-03-04T03:27:30;103352.95;;;6.99;75.00
57412;BME280;43247;52.828;-8.980;2023-03-04T03:28:31;103351.67;;;7.03;75.03
57412;BME280;43247;52.828;-8.980;2023-03-04T03:29:31;103350.10;;;7.04;74.94
57412;BME280;43247;52.828;-8.980;2023-03-04T03:30:31;103348.47;;;7.03;74.93
57412;BME280;43247;52.828;-8.980;2023-03-04T03:31:31;103347.78;;;7.02;74.80
57412;BME280;43247;52.828;-8.980;2023-03-04T03:32:31;103348.84;;;7.03;75.09
57412;BME280;43247;52.828;-8.980;2023-03-04T03:33:31;103347.62;;;7.04;75.17
57412;BME280;43247;52.828;-8.980;2023-03-04T03:34:32;103346.08;;;7.04;75.14
57412;BME280;43247;52.828;-8.980;2023-03-04T03:35:32;103343.45;;;7.04;74.99
57412;BME280;43247;52.828;-8.980;2023-03-04T03:36:32;103343.80;;;7.04;75.08
57412;BME280;43247;52.828;-8.980;2023-03-04T03:37:32;103342.78;;;7.03;75.19
57412;BME280;43247;52.828;-8.980;2023-03-04T03:38:33;103343.50;;;7.03;75.20
57412;BME280;43247;52.828;-8.980;2023-03-04T03:39:33;103342.80;;;7.03;75.29
57412;BME280;43247;52.828;-8.980;2023-03-04T03:40:33;103344.56;;;7.02;75.26
57412;BME280;43247;52.828;-8.980;2023-03-04T03:41:33;103347.49;;;7.02;75.28
57412;BME280;43247;52.828;-8.980;2023-03-04T03:42:33;103347.21;;;7.02;75.34
57412;BME280;43247;52.828;-8.980;2023-03-04T03:43:33;103347.77;;;7.01;75.35
57412;BME280;43247;52.828;-8.980;2023-03-04T03:44:34;103347.87;;;7.00;75.46
57412;BME280;43247;52.828;-8.980;2023-03-04T03:45:34;103347.62;;;7.01;75.52
57412;BME280;43247;52.828;-8.980;2023-03-04T03:46:34;103349.41;;;7.00;75.43
57412;BME280;43247;52.828;-8.980;2023-03-04T03:47:34;103350.02;;;7.00;75.44
57412;BME280;43247;52.828;-8.980;2023-03-04T03:48:34;103351.11;;;7.01;75.48
57412;BME280;43247;52.828;-8.980;2023-03-04T03:49:35;103350.27;;;7.00;75.48
57412;BME280;43247;52.828;-8.980;2023-03-04T03:50:35;103349.49;;;6.99;75.50
57412;BME280;43247;52.828;-8.980;2023-03-04T03:51:36;103350.14;;;7.00;75.63
57412;BME280;43247;52.828;-8.980;2023-03-04T03:52:36;103350.83;;;6.99;75.52
57412;BME280;43247;52.828;-8.980;2023-03-04T03:53:36;103349.76;;;7.00;75.71
57412;BME280;43247;52.828;-8.980;2023-03-04T03:54:36;103350.99;;;7.00;75.67
57412;BME280;43247;52.828;-8.980;2023-03-04T03:55:37;103349.63;;;6.99;75.67
57412;BME280;43247;52.828;-8.980;2023-03-04T03:56:37;103349.21;;;6.99;75.63
57412;BME280;43247;52.828;-8.980;2023-03-04T03:57:37;103352.27;;;6.98;75.62
57412;BME280;43247;52.828;-8.980;2023-03-04T03:58:37;103352.85;;;6.98;75.55
57412;BME280;43247;52.828;-8.980;2023-03-04T03:59:38;103353.65;;;6.98;75.62
57412;BME280;43247;52.828;-8.980;2023-03-04T04:00:38;103353.54;;;6.98;75.68
57412;BME280;43247;52.828;-8.980;2023-03-04T04:01:38;103354.00;;;6.98;75.74
57412;BME280;43247;52.828;-8.980;2023-03-04T04:02:39;103355.17;;;6.98;75.72
57412;BME280;43247;52.828;-8.980;2023-03-04T04:03:39;103355.92;;;6.98;75.72
57412;BME280;43247;52.828;-8.980;2023-03-04T04:04:39;103354.50;;;6.98;75.73
57412;BME280;43247;52.828;-8.980;2023-03-04T04:05:39;103354.73;;;6.95;75.07
57412;BME280;43247;52.828;-8.980;2023-03-04T04:06:39;103353.43;;;6.85;74.72
57412;BME280;43247;52.828;-8.980;2023-03-04T04:07:40;103358.27;;;6.75;74.92
57412;BME280;43247;52.828;-8.980;2023-03-04T04:08:40;103359.42;;;6.65;75.35
57412;BME280;43247;52.828;-8.980;2023-03-04T04:09:40;103359.77;;;6.55;75.52
57412;BME280;43247;52.828;-8.980;2023-03-04T04:10:41;103359.52;;;6.55;75.61
57412;BME280;43247;52.828;-8.980;2023-03-04T04:11:40;103361.21;;;6.60;75.61
57412;BME280;43247;52.828;-8.980;2023-03-04T04:12:41;103360.56;;;6.59;75.70
57412;BME280;43247;52.828;-8.980;2023-03-04T04:13:41;103358.81;;;6.59;75.71
57412;BME280;43247;52.828;-8.980;2023-03-04T04:14:41;103359.73;;;6.57;75.68
57412;BME280;43247;52.828;-8.980;2023-03-04T04:15:41;103358.73;;;6.60;75.61
57412;BME280;43247;52.828;-8.980;2023-03-04T04:16:41;103358.32;;;6.61;75.65
57412;BME280;43247;52.828;-8.980;2023-03-04T04:17:42;103356.60;;;6.67;75.51
57412;BME280;43247;52.828;-8.980;2023-03-04T04:18:42;103356.18;;;6.69;75.49
57412;BME280;43247;52.828;-8.980;2023-03-04T04:19:42;103355.93;;;6.64;75.52
57412;BME280;43247;52.828;-8.980;2023-03-04T04:20:42;103355.30;;;6.64;75.62
57412;BME280;43247;52.828;-8.980;2023-03-04T04:21:43;103351.71;;;6.68;75.45
57412;BME280;43247;52.828;-8.980;2023-03-04T04:22:44;103352.45;;;6.71;75.35
57412;BME280;43247;52.828;-8.980;2023-03-04T04:23:44;103349.62;;;6.71;75.31
57412;BME280;43247;52.828;-8.980;2023-03-04T04:24:44;103351.54;;;6.73;75.28
57412;BME280;43247;52.828;-8.980;2023-03-04T04:25:45;103350.18;;;6.78;75.19
57412;BME280;43247;52.828;-8.980;2023-03-04T04:26:45;103346.38;;;6.80;75.18
57412;BME280;43247;52.828;-8.980;2023-03-04T04:27:45;103348.02;;;6.66;75.47
57412;BME280;43247;52.828;-8.980;2023-03-04T04:28:45;103348.57;;;6.62;75.50
57412;BME280;43247;52.828;-8.980;2023-03-04T04:29:45;103348.38;;;6.59;75.65
57412;BME280;43247;52.828;-8.980;2023-03-04T04:30:46;103347.36;;;6.59;75.51
57412;BME280;43247;52.828;-8.980;2023-03-04T04:31:46;103348.26;;;6.58;75.55
57412;BME280;43247;52.828;-8.980;2023-03-04T04:32:46;103347.92;;;6.55;75.66
57412;BME280;43247;52.828;-8.980;2023-03-04T04:33:46;103347.42;;;6.57;75.59
57412;BME280;43247;52.828;-8.980;2023-03-04T04:34:46;103346.67;;;6.58;75.61
57412;BME280;43247;52.828;-8.980;2023-03-04T04:35:46;103347.88;;;6.58;75.62
57412;BME280;43247;52.828;-8.980;2023-03-04T04:36:48;103347.68;;;6.57;75.60
57412;BME280;43247;52.828;-8.980;2023-03-04T04:37:47;103347.15;;;6.55;75.65
57412;BME280;43247;52.828;-8.980;2023-03-04T04:38:47;103344.84;;;6.58;75.51
57412;BME280;43247;52.828;-8.980;2023-03-04T04:39:48;103345.41;;;6.60;75.46
57412;BME280;43247;52.828;-8.980;2023-03-04T04:40:48;103346.97;;;6.61;75.42
57412;BME280;43247;52.828;-8.980;2023-03-04T04:41:49;103347.30;;;6.64;75.46
57412;BME280;43247;52.828;-8.980;2023-03-04T04:42:48;103348.89;;;6.59;75.54
57412;BME280;43247;52.828;-8.980;2023-03-04T04:43:49;103349.59;;;6.54;75.50
57412;BME280;43247;52.828;-8.980;2023-03-04T04:44:49;103352.29;;;6.55;75.59
57412;BME280;43247;52.828;-8.980;2023-03-04T04:45:49;103353.44;;;6.53;75.60
57412;BME280;43247;52.828;-8.980;2023-03-04T04:46:49;103355.13;;;6.53;75.53
57412;BME280;43247;52.828;-8.980;2023-03-04T04:47:50;103354.03;;;6.53;75.45
57412;BME280;43247;52.828;-8.980;2023-03-04T04:48:50;103354.31;;;6.52;75.57
57412;BME280;43247;52.828;-8.980;2023-03-04T04:49:50;103355.08;;;6.55;75.40
57412;BME280;43247;52.828;-8.980;2023-03-04T04:50:53;103355.29;;;6.52;75.36
57412;BME280;43247;52.828;-8.980;2023-03-04T04:51:50;103355.42;;;6.53;75.37
57412;BME280;43247;52.828;-8.980;2023-03-04T04:52:51;103353.40;;;6.54;75.31
57412;BME280;43247;52.828;-8.980;2023-03-04T04:53:51;103355.32;;;6.54;75.31
57412;BME280;43247;52.828;-8.980;2023-03-04T04:54:51;103354.77;;;6.56;75.21
57412;BME280;43247;52.828;-8.980;2023-03-04T04:55:51;103354.52;;;6.56;75.20
57412;BME280;43247;52.828;-8.980;2023-03-04T04:56:52;103357.27;;;6.51;75.26
57412;BME280;43247;52.828;-8.980;2023-03-04T04:57:52;103357.89;;;6.49;75.26
57412;BME280;43247;52.828;-8.980;2023-03-04T04:58:53;103358.84;;;6.48;75.34
57412;BME280;43247;52.828;-8.980;2023-03-04T04:59:52;103357.12;;;6.50;75.23
57412;BME280;43247;52.828;-8.980;2023-03-04T05:00:55;103356.71;;;6.49;75.14
57412;BME280;43247;52.828;-8.980;2023-03-04T05:01:52;103357.01;;;6.51;75.16
57412;BME280;43247;52.828;-8.980;2023-03-04T05:02:53;103355.44;;;6.51;75.26
57412;BME280;43247;52.828;-8.980;2023-03-04T05:03:53;103354.74;;;6.50;75.34
57412;BME280;43247;52.828;-8.980;2023-03-04T05:04:53;103354.21;;;6.51;75.34
57412;BME280;43247;52.828;-8.980;2023-03-04T05:05:53;103352.81;;;6.52;75.38
57412;BME280;43247;52.828;-8.980;2023-03-04T05:06:53;103351.92;;;6.54;75.29
57412;BME280;43247;52.828;-8.980;2023-03-04T05:07:54;103350.69;;;6.56;75.34
57412;BME280;43247;52.828;-8.980;2023-03-04T05:08:54;103349.55;;;6.58;75.28
57412;BME280;43247;52.828;-8.980;2023-03-04T05:09:54;103351.66;;;6.59;75.27
57412;BME280;43247;52.828;-8.980;2023-03-04T05:10:55;103351.64;;;6.63;75.17
57412;BME280;43247;52.828;-8.980;2023-03-04T05:11:54;103350.64;;;6.65;75.23
57412;BME280;43247;52.828;-8.980;2023-03-04T05:12:55;103349.51;;;6.68;75.10
57412;BME280;43247;52.828;-8.980;2023-03-04T05:13:55;103350.10;;;6.70;75.06
57412;BME280;43247;52.828;-8.980;2023-03-04T05:14:55;103351.39;;;6.71;74.99